sensor_id;sensor_type;location;lat;lon;timestamp;P1;durP1;ratioP1;P2;durP2;ratioP2
5135;SDS011;2586;48.710;9.202;2022-10-16T20:48:50;6.57;;;4.57;;
5135;SDS011;2586;48.710;9.202;2022-10-16T20:51:24;9.70;;;3.67;;
5135;SDS011;2586;48.710;9.202;2022-10-16T20:53:55;4.67;;;3.50;;
5135;SDS011;2586;48.710;9.202;2022-10-16T20:56:22;10.70;;;3.90;;
5135;SDS011;2586;48.710;9.202;2022-10-16T20:58:49;7.87;;;3.30;;
5135;SDS011;2586;48.710;9.202;2022-10-16T21:01:16;5.90;;;4.27;;
5135;SDS011;2586;48.710;9.202;2022-10-16T21:03:43;7.00;;;3.67;;
5135;SDS011;2586;48.710;9.202;2022-10-16T21:06:13;11.73;;;4.30;;
5135;SDS011;2586;48.710;9.202;2022-10-16T21:08:39;4.23;;;3.83;;
5135;SDS011;2586;48.710;9.202;2022-10-16T21:11:10;5.83;;;3.30;;
5135;SDS011;2586;48.710;9.202;2022-10-16T21:13:38;6.60;;;3.40;;
5135;SDS011;2586;48.710;9.202;2022-10-16T21:16:04;4.23;;;3.83;;
5135;SDS011;2586;48.710;9.202;2022-10-16T21:18:30;9.73;;;4.73;;
5135;SDS011;2586;48.710;9.202;2022-10-16T21:20:55;2.87;;;2.67;;
5135;SDS011;2586;48.710;9.202;2022-10-16T21:23:21;5.20;;;3.13;;
5135;SDS011;2586;48.710;9.202;2022-10-16T21:25:47;10.97;;;3.50;;
5135;SDS011;2586;48.710;9.202;2022-10-16T21:28:13;8.17;;;3.40;;
5135;SDS011;2586;48.710;9.202;2022-10-16T21:30:39;3.70;;;3.10;;
5135;SDS011;2586;48.710;9.202;2022-10-16T21:33:05;6.37;;;2.67;;
5135;SDS011;2586;48.710;9.202;2022-10-16T21:35:30;2.60;;;2.40;;
5135;SDS011;2586;48.710;9.202;2022-10-16T21:37:56;5.77;;;2.70;;
5135;SDS011;2586;48.710;9.202;2022-10-16T21:40:21;5.33;;;2.60;;
5135;SDS011;2586;48.710;9.202;2022-10-16T21:42:47;3.93;;;3.53;;
5135;SDS011;2586;48.710;9.202;2022-10-16T21:45:13;7.17;;;2.83;;
5135;SDS011;2586;48.710;9.202;2022-10-16T21:47:38;7.20;;;2.50;;
5135;SDS011;2586;48.710;9.202;2022-10-16T21:50:04;3.17;;;2.97;;
5135;SDS011;2586;48.710;9.202;2022-10-16T21:52:30;19.50;;;2.97;;
5135;SDS011;2586;48.710;9.202;2022-10-16T21:54:55;6.47;;;2.67;;
5135;SDS011;2586;48.710;9.202;2022-10-16T21:57:21;6.60;;;2.80;;
5135;SDS011;2586;48.710;9.202;2022-10-16T21:59:48;8.43;;;2.47;;
5135;SDS011;2586;48.710;9.202;2022-10-16T22:02:16;4.97;;;2.60;;
5135;SDS011;2586;48.710;9.202;2022-10-16T22:04:43;7.70;;;3.13;;
5135;SDS011;2586;48.710;9.202;2022-10-16T22:07:08;9.60;;;2.80;;
5135;SDS011;2586;48.710;9.202;2022-10-16T22:09:34;7.33;;;3.20;;
5135;SDS011;2586;48.710;9.202;2022-10-16T22:11:59;6.10;;;2.90;;
5135;SDS011;2586;48.710;9.202;2022-10-16T22:14:25;8.00;;;2.17;;
5135;SDS011;2586;48.710;9.202;2022-10-16T22:16:50;6.40;;;2.60;;
5135;SDS011;2586;48.710;9.202;2022-10-16T22:19:17;2.57;;;2.37;;
5135;SDS011;2586;48.710;9.202;2022-10-16T22:21:44;5.40;;;2.50;;
5135;SDS011;2586;48.710;9.202;2022-10-16T22:24:12;2.90;;;2.70;;
5135;SDS011;2586;48.710;9.202;2022-10-16T22:26:38;6.43;;;2.27;;
5135;SDS011;2586;48.710;9.202;2022-10-16T22:29:04;5.40;;;2.27;;
5135;SDS011;2586;48.710;9.202;2022-10-16T22:31:30;8.83;;;2.20;;
5135;SDS011;2586;48.710;9.202;2022-10-16T22:33:57;6.10;;;2.50;;
5135;SDS011;2586;48.710;9.202;2022-10-16T22:36:25;4.87;;;2.13;;
5135;SDS011;2586;48.710;9.202;2022-10-16T22:38:51;6.07;;;2.30;;
5135;SDS011;2586;48.710;9.202;2022-10-16T22:41:17;3.13;;;2.30;;
5135;SDS011;2586;48.710;9.202;2022-10-16T22:43:44;5.00;;;1.90;;
5135;SDS011;2586;48.710;9.202;2022-10-16T22:46:12;8.17;;;2.40;;
5135;SDS011;2586;48.710;9.202;2022-10-16T22:48:40;8.53;;;2.50;;
5135;SDS011;2586;48.710;9.202;2022-10-16T22:51:07;8.30;;;2.10;;
5135;SDS011;2586;48.710;9.202;2022-10-16T22:53:33;8.33;;;2.20;;
5135;SDS011;2586;48.710;9.202;2022-10-16T22:55:59;4.83;;;2.47;;
5135;SDS011;2586;48.710;9.202;2022-10-16T22:58:26;15.23;;;2.50;;
5135;SDS011;2586;48.710;9.202;2022-10-16T23:00:52;3.67;;;1.97;;
5135;SDS011;2586;48.710;9.202;2022-10-16T23:03:18;11.73;;;2.83;;
5135;SDS011;2586;48.710;9.202;2022-10-16T23:05:43;7.97;;;2.40;;
5135;SDS011;2586;48.710;9.202;2022-10-16T23:08:09;3.03;;;1.63;;
5135;SDS011;2586;48.710;9.202;2022-10-16T23:10:42;4.03;;;2.57;;
5135;SDS011;2586;48.710;9.202;2022-10-16T23:13:10;6.23;;;2.13;;
5135;SDS011;2586;48.710;9.202;2022-10-16T23:15:41;3.07;;;1.60;;
5135;SDS011;2586;48.710;9.202;2022-10-16T23:18:08;18.03;;;2.63;;
5135;SDS011;2586;48.710;9.202;2022-10-16T23:20:33;9.43;;;2.17;;
5135;SDS011;2586;48.710;9.202;2022-10-16T23:22:59;16.67;;;2.70;;
5135;SDS011;2586;48.710;9.202;2022-10-16T23:25:25;2.70;;;2.50;;
5135;SDS011;2586;48.710;9.202;2022-10-16T23:27:53;4.23;;;2.10;;
5135;SDS011;2586;48.710;9.202;2022-10-16T23:30:19;6.10;;;1.87;;
5135;SDS011;2586;48.710;9.202;2022-10-16T23:32:45;4.10;;;2.00;;
5135;SDS011;2586;48.710;9.202;2022-10-16T23:35:10;2.80;;;1.90;;
5135;SDS011;2586;48.710;9.202;2022-10-16T23:37:36;6.87;;;2.37;;
5135;SDS011;2586;48.710;9.202;2022-10-16T23:40:01;5.60;;;2.33;;
5135;SDS011;2586;48.710;9.202;2022-10-16T23:42:27;3.47;;;2.00;;
5135;SDS011;2586;48.710;9.202;2022-10-16T23:44:53;4.80;;;2.20;;
5135;SDS011;2586;48.710;9.202;2022-10-16T23:47:18;3.83;;;2.00;;
5135;SDS011;2586;48.710;9.202;2022-10-16T23:49:44;5.03;;;2.00;;
5135;SDS011;2586;48.710;9.202;2022-10-16T23:52:09;3.33;;;1.77;;
5135;SDS011;2586;48.710;9.202;2022-10-16T23:54:35;2.57;;;2.10;;
5135;SDS011;2586;48.710;9.202;2022-10-16T23:57:00;9.93;;;2.40;;
5135;SDS011;2586;48.710;9.202;2022-10-16T23:59:26;3.43;;;2.30;;
